createdAt,value
2019-02-04T00:00:17.303Z,99.99
2019-02-04T00:01:17.010Z,99.99
2019-02-04T00:02:17.021Z,99.99
2019-02-04T00:03:31.698Z,99.99
2019-02-04T00:04:17.046Z,99.99
2019-02-04T00:05:17.060Z,99.99
2019-02-04T00:06:17.071Z,99.99
2019-02-04T00:07:17.082Z,99.99
2019-02-04T00:08:17.376Z,99.99
2019-02-04T00:09:17.103Z,99.99
2019-02-04T00:10:17.121Z,99.99
2019-02-04T00:11:17.131Z,99.99
2019-02-04T00:12:17.139Z,99.99
2019-02-04T00:14:17.170Z,99.99
2019-02-04T00:15:17.180Z,99.99
2019-02-04T00:16:17.354Z,99.99
2019-02-04T00:17:17.200Z,99.99
2019-02-04T00:18:17.212Z,99.99
2019-02-04T00:19:31.888Z,99.99
2019-02-04T00:20:17.232Z,99.99
2019-02-04T00:21:17.250Z,99.99
2019-02-04T00:22:17.262Z,99.99
2019-02-04T00:23:17.279Z,99.99
2019-02-04T00:24:17.595Z,99.99
2019-02-04T00:25:17.300Z,99.99
2019-02-04T00:26:17.311Z,99.99
2019-02-04T00:27:17.319Z,99.99
2019-02-04T00:28:17.327Z,99.99
2019-02-04T00:29:17.350Z,99.99
2019-02-04T00:30:17.349Z,99.99
2019-02-04T00:31:17.367Z,99.99
2019-02-04T00:32:17.641Z,99.99
2019-02-04T00:33:17.395Z,99.99
2019-02-04T00:34:17.400Z,99.99
2019-02-04T00:35:32.071Z,99.99
2019-02-04T00:36:17.429Z,99.99
2019-02-04T00:37:17.445Z,99.99
2019-02-04T00:38:17.457Z,99.99
2019-02-04T00:41:17.485Z,99.99
2019-02-04T00:42:17.498Z,99.99
2019-02-04T00:43:17.508Z,99.99
2019-02-04T00:45:17.531Z,99.99
2019-02-04T00:46:17.546Z,99.99
2019-02-04T00:47:17.776Z,99.99
2019-02-04T00:48:17.567Z,99.99
2019-02-04T00:49:17.579Z,99.99
2019-02-04T00:50:17.597Z,99.99
2019-02-04T00:51:32.260Z,99.99
2019-02-04T00:52:17.613Z,99.99
2019-02-04T00:53:17.626Z,99.99
2019-02-04T00:54:17.635Z,99.99
2019-02-04T00:55:17.934Z,99.99
2019-02-04T00:56:17.658Z,99.99
2019-02-04T00:57:17.683Z,99.99
2019-02-04T00:58:17.682Z,99.99
2019-02-04T00:59:17.701Z,99.99
2019-02-04T01:01:17.720Z,99.99
2019-02-04T01:02:17.738Z,99.99
2019-02-04T01:03:17.983Z,99.99
2019-02-04T01:04:17.754Z,99.99
2019-02-04T01:05:17.766Z,99.99
2019-02-04T01:06:32.436Z,99.99
2019-02-04T01:07:17.792Z,99.99
2019-02-04T01:08:17.802Z,99.99
2019-02-04T01:09:17.813Z,99.99
2019-02-04T01:10:17.829Z,99.99
2019-02-04T01:11:18.019Z,99.99
2019-02-04T01:12:17.848Z,99.99
2019-02-04T01:13:17.864Z,99.99
2019-02-04T01:14:17.881Z,99.99
2019-02-04T01:15:17.888Z,99.99
2019-02-04T01:16:17.895Z,99.99
2019-02-04T01:17:17.910Z,99.99
2019-02-04T01:18:17.918Z,99.99
2019-02-04T01:19:18.193Z,99.99
2019-02-04T01:20:17.946Z,99.99
2019-02-04T01:21:17.963Z,99.99
2019-02-04T01:22:17.966Z,99.99
2019-02-04T01:23:17.980Z,99.99
2019-02-04T01:24:17.990Z,99.99
2019-02-04T01:25:18.001Z,99.99
2019-02-04T01:26:18.140Z,99.99
2019-02-04T01:28:18.043Z,99.99
2019-02-04T01:29:18.051Z,99.99
2019-02-04T01:30:18.055Z,99.99
2019-02-04T01:31:18.137Z,99.99
2019-02-04T01:32:18.082Z,99.99
2019-02-04T01:33:18.095Z,99.99
2019-02-04T01:34:18.108Z,99.99
2019-02-04T01:35:18.339Z,99.99
2019-02-04T01:36:18.130Z,99.99
2019-02-04T01:37:18.142Z,99.99
2019-02-04T01:38:32.809Z,99.99
2019-02-04T01:39:18.162Z,99.99
2019-02-04T01:40:18.178Z,99.99
2019-02-04T01:41:18.195Z,99.99
2019-02-04T01:42:18.201Z,99.99
2019-02-04T01:43:18.607Z,99.99
2019-02-04T01:44:18.229Z,99.99
2019-02-04T01:45:18.235Z,99.99
2019-02-04T01:47:18.260Z,99.99
2019-02-04T01:48:18.268Z,99.99
2019-02-04T01:49:18.285Z,99.99
2019-02-04T01:50:18.293Z,99.99
2019-02-04T01:51:18.610Z,99.99
2019-02-04T01:52:18.315Z,99.99
2019-02-04T01:53:18.325Z,99.99
2019-02-04T01:54:32.996Z,99.99
2019-02-04T01:55:18.353Z,99.99
2019-02-04T01:56:18.361Z,99.99
2019-02-04T01:57:18.375Z,99.99
2019-02-04T01:58:18.386Z,99.99
2019-02-04T01:59:18.757Z,99.99
2019-02-04T02:00:18.414Z,99.99
2019-02-04T02:01:18.418Z,99.99
2019-02-04T02:02:18.433Z,99.99
2019-02-04T02:03:18.439Z,99.99
2019-02-04T02:05:18.481Z,99.99
2019-02-04T02:06:18.478Z,99.99
2019-02-04T02:07:18.599Z,99.99
2019-02-04T02:08:18.499Z,99.99
2019-02-04T02:09:18.516Z,99.99
2019-02-04T02:10:33.181Z,99.99
2019-02-04T02:11:18.532Z,99.99
2019-02-04T02:12:18.546Z,99.99
2019-02-04T02:13:18.555Z,99.99
2019-02-04T02:14:18.569Z,99.99
2019-02-04T02:15:18.691Z,99.99
2019-02-04T02:17:28.806Z,99.99
2019-02-04T02:18:18.617Z,99.99
2019-02-04T02:19:18.627Z,99.99
2019-02-04T02:20:18.638Z,99.99
2019-02-04T02:21:18.651Z,99.99
2019-02-04T02:22:18.661Z,99.99
2019-02-04T02:23:18.672Z,99.99
2019-02-04T02:24:18.690Z,99.99
2019-02-04T02:25:18.698Z,99.99
2019-02-04T02:26:33.366Z,99.99
2019-02-04T02:27:18.718Z,99.99
2019-02-04T02:28:18.732Z,99.99
2019-02-04T02:29:18.797Z,99.99
2019-02-04T02:30:18.757Z,99.99
2019-02-04T02:31:18.871Z,99.99
2019-02-04T02:33:18.793Z,99.99
2019-02-04T02:34:18.797Z,99.99
2019-02-04T02:35:18.814Z,99.99
2019-02-04T02:36:18.825Z,99.99
2019-02-04T02:37:18.852Z,99.99
2019-02-04T02:39:18.872Z,99.99
2019-02-04T02:40:18.872Z,99.99
2019-02-04T02:41:33.539Z,99.99
2019-02-04T02:42:18.907Z,99.99
2019-02-04T02:43:18.910Z,99.99
2019-02-04T02:44:18.915Z,99.99
2019-02-04T02:45:18.929Z,99.99
2019-02-04T02:46:19.219Z,99.99
2019-02-04T02:48:18.962Z,99.99
2019-02-04T02:49:18.976Z,99.99
2019-02-04T02:50:18.983Z,99.99
2019-02-04T02:51:19.006Z,99.99
2019-02-04T02:52:19.020Z,99.99
2019-02-04T02:53:19.022Z,99.99
2019-02-04T02:54:19.181Z,99.99
2019-02-04T02:55:19.048Z,99.99
2019-02-04T02:56:19.078Z,99.99
2019-02-04T02:57:19.068Z,99.99
2019-02-04T02:58:19.078Z,99.99
2019-02-04T02:59:19.098Z,99.99
2019-02-04T03:00:19.116Z,99.99
2019-02-04T03:01:19.110Z,99.99
2019-02-04T03:02:19.468Z,99.99
2019-02-04T03:03:19.148Z,99.99
2019-02-04T03:04:19.279Z,99.99
2019-02-04T03:05:19.168Z,99.99
2019-02-04T03:06:19.173Z,99.99
2019-02-04T03:07:19.181Z,99.99
2019-02-04T03:08:19.196Z,99.99
2019-02-04T03:09:19.208Z,99.99
2019-02-04T03:10:19.568Z,99.99
2019-02-04T03:11:19.249Z,99.99
2019-02-04T03:12:19.240Z,99.99
2019-02-04T03:13:33.911Z,99.99
2019-02-04T03:14:19.268Z,99.99
2019-02-04T03:15:19.281Z,99.99
2019-02-04T03:16:19.287Z,99.99
2019-02-04T03:17:19.302Z,99.99
2019-02-04T03:18:19.315Z,99.99
2019-02-04T03:19:19.321Z,99.99
2019-02-04T03:22:19.358Z,99.99
2019-02-04T03:23:19.373Z,99.99
2019-02-04T03:24:19.380Z,99.99
2019-02-04T03:25:19.407Z,99.99
2019-02-04T03:26:19.413Z,99.99
2019-02-04T03:27:19.514Z,99.99
2019-02-04T03:28:19.433Z,99.99
2019-02-04T03:29:34.100Z,99.99
2019-02-04T03:30:19.492Z,99.99
2019-02-04T03:31:19.467Z,99.99
2019-02-04T03:32:19.489Z,99.99
2019-02-04T03:33:19.555Z,99.99
2019-02-04T03:34:19.504Z,99.99
2019-02-04T03:35:19.529Z,99.99
2019-02-04T03:36:19.532Z,99.99
2019-02-04T03:38:19.552Z,99.99
2019-02-04T03:39:19.564Z,99.99
2019-02-04T03:40:19.580Z,99.99
2019-02-04T03:41:19.768Z,99.99
2019-02-04T03:42:19.593Z,99.99
2019-02-04T03:43:19.609Z,99.99
2019-02-04T03:44:19.617Z,99.99
2019-02-04T03:45:34.286Z,99.99
2019-02-04T03:46:19.643Z,99.99
2019-02-04T03:47:19.683Z,99.99
2019-02-04T03:51:19.700Z,99.99
2019-02-04T03:52:19.711Z,99.99
2019-02-04T03:55:19.758Z,99.99
2019-02-04T03:56:19.762Z,99.99
2019-02-04T03:57:20.028Z,99.99
2019-02-04T03:58:19.784Z,99.99
2019-02-04T03:59:19.796Z,99.99
2019-02-04T04:00:19.921Z,99.99
2019-02-04T04:01:34.478Z,99.99
2019-02-04T04:02:19.832Z,99.99
2019-02-04T04:03:19.844Z,99.99
2019-02-04T04:05:20.185Z,99.99
2019-02-04T04:06:19.885Z,99.99
2019-02-04T04:07:19.895Z,99.99
2019-02-04T04:08:19.909Z,99.99
2019-02-04T04:09:19.924Z,99.99
2019-02-04T04:10:19.932Z,99.99
2019-02-04T04:11:20.033Z,99.99
2019-02-04T04:12:19.955Z,99.99
2019-02-04T04:13:20.145Z,99.99
2019-02-04T04:14:19.974Z,99.99
2019-02-04T04:15:19.986Z,99.99
2019-02-04T04:16:34.659Z,99.99
2019-02-04T04:17:20.012Z,99.99
2019-02-04T04:18:20.024Z,99.99
2019-02-04T04:19:20.047Z,99.99
2019-02-04T04:21:20.059Z,99.99
2019-02-04T04:22:20.073Z,99.99
2019-02-04T04:23:20.082Z,99.99
2019-02-04T04:24:20.097Z,99.99
2019-02-04T04:25:19.867Z,99.99
2019-02-04T04:26:20.122Z,99.99
2019-02-04T04:27:20.137Z,99.99
2019-02-04T04:28:20.144Z,99.99
2019-02-04T04:29:20.485Z,99.99
2019-02-04T04:30:20.167Z,99.99
2019-02-04T04:31:20.180Z,99.99
2019-02-04T04:32:20.192Z,99.99
2019-02-04T04:33:20.215Z,99.99
2019-02-04T04:34:20.301Z,99.99
2019-02-04T04:35:20.231Z,99.99
2019-02-04T04:36:20.249Z,99.99
2019-02-04T04:37:20.522Z,99.99
2019-02-04T04:38:20.276Z,99.99
2019-02-04T04:39:20.280Z,99.99
2019-02-04T04:40:20.297Z,99.99
2019-02-04T04:41:20.303Z,99.99
2019-02-04T04:42:20.313Z,99.99
2019-02-04T04:43:20.326Z,99.99
2019-02-04T04:44:20.337Z,99.99
2019-02-04T04:45:20.475Z,99.99
2019-02-04T04:46:20.368Z,99.99
2019-02-04T04:47:20.379Z,99.99
2019-02-04T04:48:35.043Z,99.99
2019-02-04T04:49:20.403Z,99.99
2019-02-04T04:50:20.506Z,99.99
2019-02-04T04:51:20.440Z,99.99
2019-02-04T04:52:20.437Z,99.99
2019-02-04T04:53:20.446Z,99.99
2019-02-04T04:54:20.457Z,99.99
2019-02-04T04:55:20.470Z,99.99
2019-02-04T04:57:20.498Z,99.99
2019-02-04T04:58:20.605Z,99.99
2019-02-04T04:59:20.527Z,99.99
2019-02-04T05:00:20.536Z,99.99
2019-02-04T05:01:20.548Z,99.99
2019-02-04T05:02:20.570Z,99.99
2019-02-04T05:03:20.565Z,99.99
2019-02-04T05:04:35.236Z,99.99
2019-02-04T05:05:20.592Z,99.99
2019-02-04T05:06:20.607Z,99.99
2019-02-04T05:07:20.615Z,99.99
2019-02-04T05:08:20.869Z,99.99
2019-02-04T05:09:20.638Z,99.99
2019-02-04T05:10:20.654Z,99.99
2019-02-04T05:11:20.665Z,99.99
2019-02-04T05:12:20.679Z,99.99
2019-02-04T05:13:20.691Z,99.99
2019-02-04T05:14:20.699Z,99.99
2019-02-04T05:15:20.711Z,99.99
2019-02-04T05:16:20.997Z,99.99
2019-02-04T05:17:20.736Z,99.99
2019-02-04T05:18:20.754Z,99.99
2019-02-04T05:19:20.763Z,99.99
2019-02-04T05:20:35.429Z,99.99
2019-02-04T05:21:20.786Z,99.99
2019-02-04T05:22:20.801Z,99.99
2019-02-04T05:23:20.809Z,99.99
2019-02-04T05:24:21.051Z,99.99
2019-02-04T05:25:20.838Z,99.99
2019-02-04T05:26:20.844Z,99.99
2019-02-04T05:27:20.868Z,99.99
2019-02-04T05:28:20.872Z,99.99
2019-02-04T05:29:20.902Z,99.99
2019-02-04T05:30:21.047Z,99.99
2019-02-04T05:31:20.908Z,99.99
2019-02-04T05:32:21.188Z,99.99
2019-02-04T05:33:20.934Z,99.99
2019-02-04T05:34:20.946Z,99.99
2019-02-04T05:35:20.967Z,99.99
2019-02-04T05:36:35.622Z,99.99
2019-02-04T05:37:20.980Z,99.99
2019-02-04T05:38:20.992Z,99.99
2019-02-04T05:39:21.004Z,99.99
2019-02-04T05:40:21.291Z,99.99
2019-02-04T05:41:21.026Z,99.99
2019-02-04T05:42:21.059Z,99.99
2019-02-04T05:44:21.072Z,99.99
2019-02-04T05:45:21.071Z,99.99
2019-02-04T05:46:21.085Z,99.99
2019-02-04T05:47:21.104Z,99.99
2019-02-04T05:48:21.389Z,99.99
2019-02-04T05:49:21.129Z,99.99
2019-02-04T05:50:21.139Z,99.99
2019-02-04T05:51:35.805Z,99.99
2019-02-04T05:52:21.160Z,99.99
2019-02-04T05:53:21.176Z,99.99
2019-02-04T05:54:21.180Z,99.99
2019-02-04T05:55:21.205Z,99.99
2019-02-04T05:56:21.603Z,99.99
2019-02-04T05:57:21.216Z,99.99
2019-02-04T05:59:21.336Z,99.99
2019-02-04T06:00:21.259Z,99.99
2019-02-04T06:01:21.274Z,99.99
2019-02-04T06:02:21.295Z,99.99
2019-02-04T06:03:21.299Z,99.99
2019-02-04T06:04:21.473Z,99.99
2019-02-04T06:05:21.323Z,99.99
2019-02-04T06:06:21.433Z,99.99
2019-02-04T06:07:21.352Z,99.99
2019-02-04T06:08:21.357Z,99.99
2019-02-04T06:09:21.369Z,99.99
2019-02-04T06:10:21.386Z,99.99
2019-02-04T06:11:21.390Z,99.99
2019-02-04T06:12:21.408Z,99.99
2019-02-04T06:13:21.412Z,99.99
2019-02-04T06:14:21.431Z,99.99
2019-02-04T06:15:21.445Z,99.99
2019-02-04T06:16:21.459Z,99.99
2019-02-04T06:17:21.468Z,99.99
2019-02-04T06:18:21.481Z,99.99
2019-02-04T06:19:21.672Z,99.99
2019-02-04T06:20:21.499Z,99.99
2019-02-04T06:21:21.517Z,99.99
2019-02-04T06:22:21.526Z,99.99
2019-02-04T06:23:36.194Z,99.99
2019-02-04T06:24:21.552Z,99.99
2019-02-04T06:25:21.604Z,99.99
2019-02-04T06:26:21.585Z,99.99
2019-02-04T06:27:21.854Z,99.99
2019-02-04T06:28:21.598Z,99.99
2019-02-04T06:29:21.612Z,99.99
2019-02-04T06:30:21.776Z,99.99
2019-02-04T06:31:21.647Z,99.99
2019-02-04T06:32:21.650Z,99.99
2019-02-04T06:33:21.659Z,99.99
2019-02-04T06:34:21.699Z,99.99
2019-02-04T06:35:22.018Z,99.99
2019-02-04T06:36:21.692Z,99.99
2019-02-04T06:37:21.712Z,99.99
2019-02-04T06:38:21.719Z,99.99
2019-02-04T06:39:36.387Z,99.99
2019-02-04T06:40:21.752Z,99.99
2019-02-04T06:42:21.768Z,99.99
2019-02-04T06:43:22.091Z,99.99
2019-02-04T06:44:21.787Z,99.99
2019-02-04T06:45:21.900Z,99.99
2019-02-04T06:46:21.814Z,99.99
2019-02-04T06:48:21.851Z,99.99
2019-02-04T06:49:21.850Z,99.99
2019-02-04T06:50:21.861Z,99.99
2019-02-04T06:51:22.166Z,99.99
2019-02-04T06:52:21.894Z,99.99
2019-02-04T06:53:21.903Z,99.99
2019-02-04T06:54:21.908Z,99.99
2019-02-04T06:55:36.577Z,99.99
2019-02-04T06:56:21.932Z,99.99
2019-02-04T06:57:21.949Z,99.99
2019-02-04T06:58:21.959Z,99.99
2019-02-04T06:59:22.181Z,99.99
2019-02-04T07:01:21.992Z,99.99
2019-02-04T07:04:22.031Z,99.99
2019-02-04T07:05:22.042Z,99.99
2019-02-04T07:06:22.125Z,99.99
2019-02-04T07:07:22.065Z,99.99
2019-02-04T07:08:22.077Z,99.99
2019-02-04T07:09:22.095Z,99.99
2019-02-04T07:10:22.100Z,99.99
2019-02-04T07:11:36.768Z,99.99
2019-02-04T07:12:22.234Z,99.99
2019-02-04T07:13:22.137Z,99.99
2019-02-04T07:14:22.434Z,99.99
2019-02-04T07:15:22.165Z,99.99
2019-02-04T07:16:22.171Z,99.99
2019-02-04T07:18:22.197Z,99.99
2019-02-04T07:19:26.961Z,99.99
2019-02-04T07:20:22.219Z,99.99
2019-02-04T07:21:23.556Z,99.99
2019-02-04T07:22:22.835Z,99.99
2019-02-04T07:23:22.262Z,99.99
2019-02-04T07:24:22.267Z,99.99
2019-02-04T07:25:22.033Z,99.99
2019-02-04T07:26:36.956Z,99.99
2019-02-04T07:27:25.039Z,99.99
2019-02-04T07:29:22.444Z,99.99
2019-02-04T07:30:22.340Z,99.99
2019-02-04T07:31:22.357Z,99.99
2019-02-04T07:32:22.367Z,99.99
2019-02-04T07:33:22.394Z,99.99
2019-02-04T07:34:22.401Z,99.99
2019-02-04T07:35:22.410Z,99.99
2019-02-04T07:36:22.420Z,99.99
2019-02-04T07:37:22.679Z,99.99
2019-02-04T07:38:22.442Z,99.99
2019-02-04T07:39:22.463Z,99.99
2019-02-04T07:40:22.569Z,99.99
2019-02-04T07:41:22.484Z,99.99
2019-02-04T07:42:22.562Z,99.99
2019-02-04T07:43:22.511Z,99.99
2019-02-04T07:44:22.517Z,99.99
2019-02-04T07:45:22.898Z,99.99
2019-02-04T07:46:24.989Z,99.99
2019-02-04T07:47:22.564Z,99.99
2019-02-04T07:48:22.572Z,99.99
2019-02-04T07:49:22.582Z,99.99
2019-02-04T07:50:22.597Z,99.99
2019-02-04T07:51:22.617Z,99.99
2019-02-04T07:52:22.625Z,99.99
2019-02-04T07:53:23.040Z,99.99
2019-02-04T07:54:22.647Z,99.99
2019-02-04T07:55:22.658Z,99.99
2019-02-04T07:56:22.675Z,99.99
2019-02-04T07:57:22.684Z,99.99
2019-02-04T07:58:37.355Z,99.99
2019-02-04T07:59:22.709Z,99.99
2019-02-04T08:00:22.723Z,99.99
2019-02-04T08:01:23.073Z,99.99
2019-02-04T08:02:22.756Z,99.99
2019-02-04T08:03:22.764Z,99.99
2019-02-04T08:04:22.787Z,99.99
2019-02-04T08:05:22.797Z,99.99
2019-02-04T08:06:22.837Z,99.99
2019-02-04T08:07:22.817Z,99.99
2019-02-04T08:08:22.836Z,99.99
2019-02-04T08:09:22.855Z,99.99
2019-02-04T08:10:22.618Z,99.99
2019-02-04T08:11:22.872Z,99.99
2019-02-04T08:12:22.885Z,99.99
2019-02-04T08:13:22.653Z,99.99
2019-02-04T08:14:37.571Z,99.99
2019-02-04T08:15:22.929Z,99.99
2019-02-04T08:16:22.700Z,99.99
2019-02-04T08:17:22.956Z,99.99
2019-02-04T08:19:22.979Z,99.99
2019-02-04T08:21:23.012Z,99.99
2019-02-04T08:22:23.027Z,99.99
2019-02-04T08:23:23.039Z,99.99
2019-02-04T08:24:23.336Z,99.99
2019-02-04T08:25:25.756Z,99.99
2019-02-04T08:26:23.082Z,99.99
2019-02-04T08:27:23.100Z,99.99
2019-02-04T08:28:23.132Z,99.99
2019-02-04T08:29:23.124Z,99.99
2019-02-04T08:30:38.615Z,99.99
2019-02-04T08:31:23.254Z,99.99
2019-02-04T08:32:23.505Z,99.99
2019-02-04T08:33:23.191Z,99.99
2019-02-04T08:34:23.205Z,99.99
2019-02-04T08:35:23.215Z,99.99
2019-02-04T08:37:23.272Z,99.99
2019-02-04T08:38:23.261Z,99.99
2019-02-04T08:39:23.278Z,99.99
2019-02-04T08:40:23.295Z,99.99
2019-02-04T08:41:23.303Z,99.99
2019-02-04T08:42:23.327Z,99.99
2019-02-04T08:43:23.334Z,99.99
2019-02-04T08:44:23.339Z,99.99
2019-02-04T08:45:23.352Z,99.99
2019-02-04T08:46:38.021Z,99.99
2019-02-04T08:47:26.641Z,99.99
2019-02-04T08:48:23.391Z,99.99
2019-02-04T08:49:23.502Z,99.99
2019-02-04T08:50:23.436Z,99.99
2019-02-04T08:51:23.447Z,99.99
2019-02-04T08:52:23.461Z,99.99
2019-02-04T08:53:23.467Z,99.99
2019-02-04T08:54:23.559Z,99.99
2019-02-04T08:55:23.511Z,99.99
2019-02-04T08:56:23.515Z,99.99
2019-02-04T08:57:23.529Z,99.99
2019-02-04T08:58:23.612Z,99.99
2019-02-04T08:59:23.577Z,99.99
2019-02-04T09:00:23.580Z,99.99
2019-02-04T09:01:38.239Z,99.99
2019-02-04T09:02:23.918Z,99.99
2019-02-04T09:03:23.618Z,99.99
2019-02-04T09:04:23.637Z,99.99
2019-02-04T09:05:23.655Z,99.99
2019-02-04T09:06:23.663Z,99.99
2019-02-04T09:07:23.670Z,99.99
2019-02-04T09:08:23.688Z,99.99
2019-02-04T09:09:23.702Z,99.99
2019-02-04T09:10:24.124Z,99.99
2019-02-04T09:11:23.748Z,99.99
2019-02-04T09:12:23.751Z,99.99
2019-02-04T09:13:23.759Z,99.99
2019-02-04T09:14:23.778Z,99.99
2019-02-04T09:15:23.794Z,99.99
2019-02-04T09:16:23.801Z,99.99
2019-02-04T09:17:24.004Z,99.99
2019-02-04T09:18:23.832Z,99.99
2019-02-04T09:19:23.847Z,99.99
2019-02-04T09:20:23.869Z,99.99
2019-02-04T09:21:23.885Z,99.99
2019-02-04T09:24:23.921Z,99.99
2019-02-04T09:25:24.335Z,99.99
2019-02-04T09:26:23.958Z,99.99
2019-02-04T09:27:23.965Z,99.99
2019-02-04T09:29:24.009Z,99.99
2019-02-04T09:30:24.018Z,99.99
2019-02-04T09:31:24.026Z,99.99
2019-02-04T09:32:24.043Z,99.99
2019-02-04T09:33:38.712Z,99.99
2019-02-04T09:34:24.072Z,99.99
2019-02-04T09:35:24.188Z,99.99
2019-02-04T09:36:24.113Z,99.99
2019-02-04T09:37:24.120Z,99.99
2019-02-04T09:38:24.141Z,99.99
2019-02-04T09:39:24.144Z,99.99
2019-02-04T09:40:24.362Z,99.99
2019-02-04T09:41:24.179Z,99.99
2019-02-04T09:42:24.289Z,99.99
2019-02-04T09:43:24.207Z,99.99
2019-02-04T09:44:24.218Z,99.99
2019-02-04T09:45:28.131Z,99.99
2019-02-04T09:46:24.250Z,99.99
2019-02-04T09:47:24.267Z,99.99
2019-02-04T09:48:24.579Z,99.99
2019-02-04T09:49:38.948Z,99.99
2019-02-04T09:50:24.622Z,99.99
2019-02-04T09:52:24.345Z,99.99
2019-02-04T09:53:24.361Z,99.99
2019-02-04T09:54:24.365Z,99.99
2019-02-04T09:55:24.394Z,99.99
2019-02-04T09:56:24.591Z,99.99
2019-02-04T09:57:24.415Z,99.99
2019-02-04T09:58:24.427Z,99.99
2019-02-04T10:00:24.462Z,99.99
2019-02-04T10:01:24.473Z,99.99
2019-02-04T10:02:24.488Z,99.99
2019-02-04T10:03:24.501Z,99.99
2019-02-04T10:04:24.554Z,99.99
2019-02-04T10:05:39.188Z,99.99
2019-02-04T10:06:24.549Z,99.99
2019-02-04T10:07:24.568Z,99.99
2019-02-04T10:09:24.593Z,99.99
2019-02-04T10:10:24.611Z,99.99
2019-02-04T10:11:24.621Z,99.99
2019-02-04T10:12:24.735Z,99.99
2019-02-04T10:13:24.656Z,99.99
2019-02-04T10:14:24.670Z,99.99
2019-02-04T10:15:24.699Z,99.99
2019-02-04T10:16:24.758Z,99.99
2019-02-04T10:17:24.805Z,99.99
2019-02-04T10:18:24.790Z,99.99
2019-02-04T10:19:24.805Z,99.99
2019-02-04T10:20:35.920Z,99.99
2019-02-04T10:21:39.483Z,99.99
2019-02-04T10:22:24.830Z,99.99
2019-02-04T10:23:24.831Z,99.99
2019-02-04T10:24:24.850Z,99.99
2019-02-04T10:25:24.859Z,99.99
2019-02-04T10:26:24.872Z,99.99
2019-02-04T10:27:25.179Z,99.99
2019-02-04T10:28:24.955Z,99.99
2019-02-04T10:29:24.962Z,99.99
2019-02-04T10:30:24.971Z,99.99
2019-02-04T10:31:24.992Z,99.99
2019-02-04T10:32:24.978Z,99.99
2019-02-04T10:33:25.019Z,99.99
2019-02-04T10:34:25.053Z,99.99
2019-02-04T10:35:25.281Z,99.99
2019-02-04T10:36:39.729Z,99.99
2019-02-04T10:37:25.052Z,99.99
2019-02-04T10:38:25.065Z,99.99
2019-02-04T10:39:25.061Z,99.99
2019-02-04T10:40:25.172Z,99.99
2019-02-04T10:41:25.155Z,99.99
2019-02-04T10:42:25.181Z,99.99
2019-02-04T10:43:25.430Z,99.99
2019-02-04T10:44:25.174Z,99.99
2019-02-04T10:45:25.266Z,99.99
2019-02-04T10:46:25.233Z,99.99
2019-02-04T10:47:25.237Z,99.99
2019-02-04T10:48:25.238Z,99.99
2019-02-04T10:49:25.381Z,99.99
2019-02-04T10:50:25.269Z,99.99
2019-02-04T10:51:25.391Z,99.99
2019-02-04T10:52:25.398Z,99.99
2019-02-04T10:53:25.325Z,99.99
2019-02-04T10:54:25.081Z,99.99
2019-02-04T10:55:25.414Z,99.99
2019-02-04T10:56:25.362Z,99.99
2019-02-04T10:57:25.325Z,99.99
2019-02-04T10:58:25.441Z,99.99
2019-02-04T10:59:25.393Z,99.99
2019-02-04T11:00:25.412Z,99.99
2019-02-04T11:01:25.406Z,99.99
2019-02-04T11:02:25.442Z,99.99
2019-02-04T11:03:25.449Z,99.99
2019-02-04T11:04:25.526Z,99.99
2019-02-04T11:05:25.528Z,99.99
2019-02-04T11:06:25.645Z,99.99
2019-02-04T11:07:25.530Z,99.99
2019-02-04T11:08:40.193Z,99.99
2019-02-04T11:09:25.633Z,99.99
2019-02-04T11:10:25.575Z,99.99
2019-02-04T11:12:25.550Z,99.99
2019-02-04T11:13:25.623Z,99.99
2019-02-04T11:14:25.771Z,99.99
2019-02-04T11:15:28.164Z,99.99
2019-02-04T11:16:25.675Z,99.99
2019-02-04T11:17:25.684Z,99.99
2019-02-04T11:18:25.696Z,99.58
2019-02-04T11:19:25.703Z,99.3
2019-02-04T11:20:25.716Z,99.58
2019-02-04T11:21:25.689Z,99.87
2019-02-04T11:22:25.976Z,99.99
2019-02-04T11:23:25.763Z,99.99
2019-02-04T11:24:40.437Z,99.99
2019-02-04T11:25:25.781Z,99.99
2019-02-04T11:26:25.817Z,99.58
2019-02-04T11:27:25.867Z,99.49
2019-02-04T11:28:25.889Z,99.68
2019-02-04T11:29:25.991Z,99.99
2019-02-04T11:30:26.153Z,99.99
2019-02-04T11:32:25.912Z,99.39
2019-02-04T11:33:25.921Z,99.2
2019-02-04T11:34:25.871Z,99.3
2019-02-04T11:35:25.647Z,99.3
2019-02-04T11:36:25.947Z,99.11
2019-02-04T11:37:26.006Z,99.39
2019-02-04T11:38:26.292Z,99.3
2019-02-04T11:39:26.063Z,98.73
2019-02-04T11:40:40.643Z,97.78
2019-02-04T11:41:26.121Z,97.5
2019-02-04T11:42:26.101Z,97.88
2019-02-04T11:43:26.102Z,98.25
2019-02-04T11:44:26.036Z,98.35
2019-02-04T11:45:26.144Z,98.63
2019-02-04T11:46:26.183Z,98.07
2019-02-04T11:47:26.145Z,97.97
2019-02-04T11:49:26.107Z,97.31
2019-02-04T11:50:26.134Z,97.02
2019-02-04T11:51:26.144Z,96.45
2019-02-04T11:52:26.154Z,97.12
2019-02-04T11:53:34.824Z,97.02
2019-02-04T11:54:26.189Z,96.92
2019-02-04T11:55:26.197Z,96.83
2019-02-04T11:56:40.873Z,96.73
2019-02-04T11:57:26.227Z,96.64
2019-02-04T11:58:26.243Z,96.22
2019-02-04T11:59:26.259Z,95.55
2019-02-04T12:00:26.273Z,94.93
2019-02-04T12:01:26.499Z,95.22
2019-02-04T12:02:37.042Z,94.37
2019-02-04T12:04:26.337Z,95.07
2019-02-04T12:05:26.355Z,95.46
2019-02-04T12:06:26.364Z,95.27
2019-02-04T12:07:26.379Z,95.36
2019-02-04T12:08:26.397Z,95.07
2019-02-04T12:09:26.619Z,94.98
2019-02-04T12:10:26.426Z,95.55
2019-02-04T12:11:41.100Z,95.55
2019-02-04T12:12:26.463Z,96.03
2019-02-04T12:13:26.471Z,95.27
2019-02-04T12:14:26.489Z,94.51
2019-02-04T12:15:26.502Z,94.42
2019-02-04T12:16:26.518Z,94.32
2019-02-04T12:17:26.791Z,94.03
2019-02-04T12:18:26.551Z,93.27
2019-02-04T12:19:26.565Z,93.37
2019-02-04T12:20:26.577Z,93.18
2019-02-04T12:21:26.599Z,93.27
2019-02-04T12:22:26.614Z,93.46
2019-02-04T12:23:26.628Z,93.46
2019-02-04T12:24:26.641Z,92.99
2019-02-04T12:25:26.967Z,93.37
2019-02-04T12:26:26.673Z,92.52
2019-02-04T12:27:34.427Z,92.14
2019-02-04T12:28:26.700Z,92.14
2019-02-04T12:29:26.715Z,92.33
2019-02-04T12:30:26.743Z,92.04
2019-02-04T12:31:26.748Z,91.66
2019-02-04T12:32:26.762Z,91.75
2019-02-04T12:33:26.887Z,91.47
2019-02-04T12:34:26.930Z,92.52
2019-02-04T12:35:26.806Z,91.66
2019-02-04T12:36:26.827Z,91.85
2019-02-04T12:37:26.896Z,92.23
2019-02-04T12:38:26.853Z,92.42
2019-02-04T12:39:26.868Z,93.27
2019-02-04T12:40:27.180Z,93.37
2019-02-04T12:41:26.898Z,93.37
2019-02-04T12:42:26.912Z,92.61
2019-02-04T12:43:41.587Z,92.14
2019-02-04T12:44:27.044Z,92.42
2019-02-04T12:45:26.963Z,91.94
2019-02-04T12:47:26.990Z,91.94
2019-02-04T12:48:27.404Z,91.94
2019-02-04T12:50:27.064Z,91.75
2019-02-04T12:51:36.191Z,91.28
2019-02-04T12:52:27.073Z,91.47
2019-02-04T12:53:27.084Z,91.56
2019-02-04T12:54:29.206Z,91.38
2019-02-04T12:55:27.117Z,90.62
2019-02-04T12:56:27.552Z,90.05
2019-02-04T12:57:27.145Z,89.76
2019-02-04T12:58:27.158Z,89.29
2019-02-04T12:59:45.032Z,88.43
2019-02-04T13:00:27.191Z,88.43
2019-02-04T13:01:27.203Z,88.34
2019-02-04T13:02:27.221Z,89.1
2019-02-04T13:03:27.241Z,89.2
2019-02-04T13:04:27.544Z,88.06
2019-02-04T13:05:27.263Z,88.34
2019-02-04T13:06:27.328Z,88.43
2019-02-04T13:07:27.398Z,88.53
2019-02-04T13:08:27.306Z,88.06
2019-02-04T13:09:27.381Z,88.34
2019-02-04T13:10:27.343Z,87.39
2019-02-04T13:11:27.363Z,87.01
2019-02-04T13:12:27.474Z,86.63
2019-02-04T13:13:27.397Z,86.25
2019-02-04T13:14:27.403Z,86.54
2019-02-04T13:15:42.075Z,86.63
2019-02-04T13:16:27.436Z,86.82
2019-02-04T13:18:27.464Z,87.49
2019-02-04T13:19:27.592Z,88.06
2019-02-04T13:20:27.497Z,86.91
2019-02-04T13:21:27.507Z,87.77
2019-02-04T13:22:27.524Z,87.39
2019-02-04T13:23:27.542Z,87.87
2019-02-04T13:24:27.678Z,88.43
2019-02-04T13:25:27.566Z,88.43
2019-02-04T13:26:27.587Z,87.87
2019-02-04T13:27:27.810Z,88.15
2019-02-04T13:28:27.618Z,87.39
2019-02-04T13:29:27.632Z,87.11
2019-02-04T13:30:27.644Z,87.2
2019-02-04T13:31:42.319Z,87.96
2019-02-04T13:32:27.685Z,87.01
2019-02-04T13:33:27.697Z,87.11
2019-02-04T13:34:27.487Z,87.2
2019-02-04T13:35:30.901Z,88.06
2019-02-04T13:36:27.738Z,87.2
2019-02-04T13:37:27.752Z,87.39
2019-02-04T13:38:27.772Z,87.3
2019-02-04T13:39:27.801Z,87.2
2019-02-04T13:40:27.803Z,87.01
2019-02-04T13:42:27.830Z,87.39